PSF weather

Pittsfield Municipal Airport
Pittsfield, Massachusetts, United States

Public forecast

Using degrees Fahrenheit for public forecast. Weather courtesy of forecast.io.

Current aviation weather report (METAR) for Pittsfield Municipal Airport

Retrieved 2020/07/04 23:54 UTC (1 hour ago):

KPSF 042354Z AUTO 00000KT 10SM CLR 24/17 A2992 RMK AO2 SLP104 T02390167 10300 20239 50001

Aviation forecast (TAF) for Pittsfield Municipal Airport

Retrieved 2020-07-05 00:42 UTC (17 minutes ago):

TAF KPSF 042340Z 0500/0524 32003KT P6SM SKC FM050600 VRB03KT P6SM FEW060 FM050900 VRB02KT P6SM FEW015 SCT060 FM051400 29004KT P6SM FEW250